Time;durP1;ratioP1;P1;durP2;ratioP2;P2;SDS_P1;SDS_P2;PMS_P1;PMS_P2;Temp;Humidity;BMP_temperature;BMP_pressure;BME280_temperature;BME280_humidity;BME280_pressure;Samples;Min_cycle;Max_cycle;Signal;HPM_P1;HPM_P2
2022/12/20 00:00:49;;;;;;;12.02;5.78;;;;;;;-1.09;63.62;96604.38;5028565;28;20037;-69
2022/12/20 00:03:14;;;;;;;11.68;6.35;;;;;;;-1.04;64.24;96612.84;5043464;28;20083;-69
2022/12/20 00:05:40;;;;;;;10.50;5.72;;;;;;;-1.09;63.91;96607.75;5045298;28;20041;-69
2022/12/20 00:08:06;;;;;;;10.70;5.28;;;;;;;-1.07;63.60;96615.41;5044615;28;20037;-69
2022/12/20 00:10:42;;;;;;;9.85;5.53;;;;;;;-1.16;63.39;96603.59;5027647;28;20044;-69
2022/12/20 00:13:07;;;;;;;11.75;5.80;;;;;;;-1.09;63.58;96619.69;5027953;28;20063;-69
2022/12/20 00:15:33;;;;;;;9.32;5.68;;;;;;;-1.27;63.84;96613.03;5044505;28;20033;-69
2022/12/20 00:17:59;;;;;;;9.70;5.45;;;;;;;-1.18;63.87;96625.72;5026199;28;21116;-69
2022/12/20 00:20:25;;;;;;;12.27;5.90;;;;;;;-1.26;63.92;96623.22;5046484;28;20082;-69
2022/12/20 00:22:50;;;;;;;9.63;5.38;;;;;;;-1.22;65.04;96632.53;5043789;28;20073;-69
2022/12/20 00:25:16;;;;;;;10.52;5.68;;;;;;;-1.35;64.82;96621.56;5046584;28;20411;-69
2022/12/20 00:27:41;;;;;;;10.57;6.15;;;;;;;-1.41;63.95;96598.69;5015110;28;20033;-69
2022/12/20 00:30:07;;;;;;;9.85;5.28;;;;;;;-1.20;64.04;96642.72;5049854;28;20041;-69
2022/12/20 00:32:33;;;;;;;12.15;5.93;;;;;;;-1.28;63.67;96626.63;5015708;28;20558;-69
2022/12/20 00:34:58;;;;;;;11.98;5.60;;;;;;;-1.31;64.20;96634.31;5050694;28;20483;-69
2022/12/20 00:37:24;;;;;;;10.02;5.97;;;;;;;-1.53;64.29;96608.97;5053497;28;20389;-69
2022/12/20 00:39:49;;;;;;;9.18;5.35;;;;;;;-1.46;64.26;96627.63;5052307;28;20033;-69
2022/12/20 00:42:15;;;;;;;11.40;5.35;;;;;;;-1.42;64.56;96625.03;5035603;28;20025;-69
2022/12/20 00:44:40;;;;;;;12.88;6.03;;;;;;;-1.41;64.50;96618.25;5052204;28;20029;-69
2022/12/20 00:47:06;;;;;;;9.57;5.50;;;;;;;-1.56;65.28;96624.31;5053367;28;20024;-69
2022/12/20 00:49:31;;;;;;;9.52;5.57;;;;;;;-1.60;65.55;96620.06;5018866;28;20044;-69
2022/12/20 00:51:57;;;;;;;12.15;5.97;;;;;;;-1.61;65.44;96619.22;5051980;28;20033;-69
2022/12/20 00:54:22;;;;;;;9.88;5.93;;;;;;;-1.62;65.75;96619.22;5051289;28;20031;-69
2022/12/20 00:56:47;;;;;;;11.25;5.72;;;;;;;-1.60;65.42;96618.34;5052013;28;20048;-69
2022/12/20 00:59:13;;;;;;;9.75;5.07;;;;;;;-1.63;65.07;96630.28;5053125;28;20056;-69
2022/12/20 01:01:38;;;;;;;12.00;6.03;;;;;;;-1.64;65.21;96631.16;5052126;28;20257;-69
2022/12/20 01:04:04;;;;;;;10.13;5.40;;;;;;;-1.70;65.11;96619.28;5051850;28;20044;-69
2022/12/20 01:06:29;;;;;;;11.50;6.38;;;;;;;-1.67;64.97;96620.94;5052077;28;20051;-69
2022/12/20 01:08:55;;;;;;;11.15;5.72;;;;;;;-1.67;65.23;96628.59;5035105;28;20417;-69
2022/12/20 01:11:22;;;;;;;11.73;6.40;;;;;;;-1.86;65.47;96615.97;5051905;28;20037;-69
2022/12/20 01:13:49;;;;;;;10.77;5.80;;;;;;;-1.81;65.40;96616.81;5052882;28;20040;-69
2022/12/20 01:16:17;;;;;;;10.13;5.90;;;;;;;-1.78;65.48;96617.63;5035253;28;20029;-69
2022/12/20 01:18:43;;;;;;;10.93;5.50;;;;;;;-1.99;65.83;96621.97;5034764;28;20028;-69
2022/12/20 01:21:10;;;;;;;11.75;6.00;;;;;;;-1.91;66.03;96606.66;5034923;28;20495;-69
2022/12/20 01:23:36;;;;;;;10.05;5.82;;;;;;;-1.91;65.78;96617.69;5035383;28;20029;-69
2022/12/20 01:26:03;;;;;;;11.20;6.35;;;;;;;-1.89;65.85;96610.91;5035016;28;20091;-69
2022/12/20 01:28:29;;;;;;;10.88;5.55;;;;;;;-1.91;65.03;96602.41;5035081;28;20487;-68
2022/12/20 01:30:54;;;;;;;10.95;5.43;;;;;;;-1.88;63.92;96610.03;5017924;28;20049;-69
2022/12/20 01:33:20;;;;;;;11.15;5.43;;;;;;;-1.86;64.55;96598.13;5031384;28;20040;-69
2022/12/20 01:36:02;;;;;;;10.50;5.63;;;;;;;-1.86;65.29;96595.59;5031312;28;20033;-69
2022/12/20 01:38:28;;;;;;;9.00;5.43;;;;;;;-1.87;65.22;96587.94;5031344;28;20080;-69
2022/12/20 01:40:53;;;;;;;10.07;5.53;;;;;;;-1.86;65.53;96592.19;5031303;28;20041;-68
2022/12/20 01:43:19;;;;;;;10.02;5.43;;;;;;;-1.91;65.19;96592.22;5031137;28;20033;-69
2022/12/20 01:45:45;;;;;;;13.38;5.50;;;;;;;-1.82;64.62;96592.16;5014137;28;20041;-69
2022/12/20 01:48:11;;;;;;;11.13;6.07;;;;;;;-1.93;64.61;96593.91;5032197;28;20104;-70
2022/12/20 01:50:36;;;;;;;10.98;5.45;;;;;;;-1.96;65.30;96586.31;5031252;28;20121;-69
2022/12/20 01:53:03;;;;;;;9.02;4.82;;;;;;;-1.89;65.19;96579.50;5014471;28;20419;-68
2022/12/20 01:55:29;;;;;;;10.13;5.70;;;;;;;-2.04;65.25;96582.94;5031134;28;20040;-69
2022/12/20 01:58:23;;;;;;;9.90;5.20;;;;;;;-2.02;64.97;96582.09;5030867;28;20053;-69
2022/12/20 02:00:49;;;;;;;11.02;5.40;;;;;;;-2.06;64.91;96566.84;5031884;28;20121;-68
2022/12/20 02:03:14;;;;;;;9.60;5.68;;;;;;;-2.19;65.35;96571.16;5030796;28;20075;-68
2022/12/20 02:05:44;;;;;;;10.13;5.30;;;;;;;-2.21;64.87;96556.72;5030853;28;20044;-69
2022/12/20 02:08:09;;;;;;;9.77;4.90;;;;;;;-2.26;64.79;96552.53;5030694;28;20110;-69
2022/12/20 02:11:07;;;;;;;11.73;5.53;;;;;;;-2.13;64.50;96549.91;5030096;28;20092;-69
2022/12/20 02:13:35;;;;;;;8.95;5.15;;;;;;;-2.11;64.80;96558.38;5030627;28;20100;-69
2022/12/20 02:16:00;;;;;;;11.07;5.65;;;;;;;-2.16;64.64;96565.19;5032046;28;20124;-68
2022/12/20 02:18:35;;;;;;;11.68;5.90;;;;;;;-2.28;64.99;96550.84;5014095;28;20030;-69
2022/12/20 02:21:16;;;;;;;8.38;5.05;;;;;;;-2.35;65.13;96555.09;5030604;28;20040;-68
2022/12/20 02:23:44;;;;;;;10.57;5.78;;;;;;;-2.22;64.65;96555.06;5030430;28;20025;-69
2022/12/20 02:26:19;;;;;;;9.75;5.15;;;;;;;-2.32;64.45;96569.50;5031907;28;20426;-69
2022/12/20 02:29:09;;;;;;;12.48;5.35;;;;;;;-2.18;65.26;96561.81;5030255;28;20029;-69
2022/12/20 02:31:47;;;;;;;10.32;5.68;;;;;;;-2.20;64.74;96561.84;5031951;28;20064;-69
2022/12/20 02:34:12;;;;;;;9.77;5.55;;;;;;;-2.31;65.25;96558.50;5031396;28;20482;-69
2022/12/20 02:36:38;;;;;;;9.25;5.47;;;;;;;-2.38;65.30;96560.19;5030492;28;20030;-69
2022/12/20 02:39:04;;;;;;;10.38;5.30;;;;;;;-2.65;65.96;96545.03;5030013;28;20380;-69
2022/12/20 02:41:35;;;;;;;11.30;5.53;;;;;;;-2.46;65.33;96561.94;5030318;28;20025;-69
2022/12/20 02:46:48;;;;;;;11.65;5.95;;;;;;;-2.53;66.12;96556.03;5030702;28;20075;-69
2022/12/20 02:49:15;;;;;;;12.52;5.82;;;;;;;-2.70;65.94;96524.72;5013355;28;20033;-69
2022/12/20 02:51:42;;;;;;;11.13;6.07;;;;;;;-2.47;65.57;96550.06;5030109;28;20065;-68
2022/12/20 02:54:07;;;;;;;11.63;6.10;;;;;;;-2.45;65.23;96556.00;5029929;28;20036;-69
2022/12/20 02:56:44;;;;;;;12.30;6.25;;;;;;;-2.33;65.33;96555.09;5029841;28;20045;-69
2022/12/20 02:59:12;;;;;;;11.15;5.82;;;;;;;-2.31;65.15;96545.75;5029220;28;20436;-69
2022/12/20 03:01:45;;;;;;;9.23;5.60;;;;;;;-2.52;65.04;96501.72;5030097;28;20117;-69
2022/12/20 03:04:10;;;;;;;10.77;6.20;;;;;;;-2.43;65.54;96523.72;5030731;28;20037;-69
2022/12/20 03:06:36;;;;;;;10.48;5.65;;;;;;;-2.52;65.89;96551.78;5029907;28;20041;-69
2022/12/20 03:09:02;;;;;;;9.68;5.70;;;;;;;-2.74;66.17;96534.03;5030870;28;20029;-69
2022/12/20 03:11:27;;;;;;;10.85;5.53;;;;;;;-2.76;66.76;96547.63;5029828;28;20037;-68
2022/12/20 03:13:52;;;;;;;11.90;5.50;;;;;;;-2.58;66.33;96546.72;5030602;28;20033;-69
2022/12/20 03:16:18;;;;;;;13.00;6.30;;;;;;;-2.40;66.29;96546.63;5046175;28;20033;-69
2022/12/20 03:18:44;;;;;;;9.18;5.30;;;;;;;-2.26;66.31;96539.78;5046234;28;20587;-69
2022/12/20 03:21:10;;;;;;;11.50;5.88;;;;;;;-2.09;65.71;96537.16;5029765;28;20080;-69
2022/12/20 03:23:36;;;;;;;10.57;6.20;;;;;;;-2.11;66.15;96536.31;5030781;28;20199;-70
2022/12/20 03:26:01;;;;;;;14.23;5.45;;;;;;;-2.11;65.80;96535.47;5029486;28;20041;-69
2022/12/20 03:28:26;;;;;;;12.88;6.05;;;;;;;-2.32;66.21;96511.78;5030734;28;20033;-68
2022/12/20 03:30:52;;;;;;;13.25;6.25;;;;;;;-2.25;65.72;96522.81;5047560;28;20048;-69
2022/12/20 03:33:17;;;;;;;10.40;6.25;;;;;;;-2.14;65.28;96543.13;5032904;28;20025;-69
2022/12/20 03:35:43;;;;;;;10.38;5.82;;;;;;;-2.34;65.43;96536.44;5049522;28;20041;-69
2022/12/20 03:38:08;;;;;;;12.07;6.03;;;;;;;-2.33;65.63;96542.38;5016224;28;20507;-68
2022/12/20 03:40:34;;;;;;;11.88;5.57;;;;;;;-2.28;65.40;96544.03;5050894;28;20403;-68
2022/12/20 03:42:59;;;;;;;9.60;5.60;;;;;;;-2.35;65.09;96529.63;5050562;28;20205;-69
2022/12/20 03:45:24;;;;;;;11.90;6.65;;;;;;;-2.36;65.18;96538.13;5049521;28;20025;-69
2022/12/20 03:47:50;;;;;;;11.82;6.80;;;;;;;-2.47;65.10;96529.72;5050447;28;20029;-69
2022/12/20 03:50:15;;;;;;;11.95;5.75;;;;;;;-2.55;64.76;96534.81;5049122;28;20041;-69
2022/12/20 03:52:41;;;;;;;10.68;5.93;;;;;;;-2.46;65.11;96541.56;5050399;28;20033;-69
2022/12/20 03:55:08;;;;;;;9.57;5.30;;;;;;;-2.35;64.20;96528.78;5050539;28;20040;-69
2022/12/20 03:57:33;;;;;;;9.05;5.28;;;;;;;-2.47;65.03;96515.28;5050760;28;20060;-69
2022/12/20 03:59:59;;;;;;;9.75;5.57;;;;;;;-2.35;65.19;96526.25;5049251;28;20411;-69
2022/12/20 04:02:24;;;;;;;9.30;5.50;;;;;;;-2.44;65.30;96518.66;5048850;28;20033;-69
2022/12/20 04:04:50;;;;;;;9.93;5.75;;;;;;;-2.49;65.17;96516.13;5049244;28;20037;-69
2022/12/20 04:07:15;;;;;;;9.18;5.63;;;;;;;-2.50;65.00;96527.19;5049016;28;20036;-69
2022/12/20 04:09:41;;;;;;;9.32;5.40;;;;;;;-2.48;64.87;96525.44;5034401;28;20119;-69
2022/12/20 04:12:06;;;;;;;9.93;6.03;;;;;;;-2.58;64.96;96511.94;5053872;28;20032;-69
2022/12/20 04:14:32;;;;;;;9.35;5.75;;;;;;;-2.61;65.15;96521.28;5036234;28;20028;-69
2022/12/20 04:16:57;;;;;;;10.73;5.70;;;;;;;-2.82;65.42;96523.03;5054101;28;20446;-69
2022/12/20 04:19:23;;;;;;;9.88;5.47;;;;;;;-3.25;65.93;96492.66;5054046;28;20025;-69
2022/12/20 04:21:48;;;;;;;10.02;5.75;;;;;;;-3.11;66.31;96517.22;5054630;28;20029;-69
2022/12/20 04:24:14;;;;;;;8.85;5.40;;;;;;;-3.44;66.88;96508.78;5052890;28;20118;-69
2022/12/20 04:26:39;;;;;;;8.25;5.28;;;;;;;-3.52;66.75;96518.13;5036290;28;20036;-69
2022/12/20 04:29:05;;;;;;;11.00;5.55;;;;;;;-3.48;66.97;96504.56;5032433;28;20079;-69
2022/12/20 04:31:30;;;;;;;10.35;5.85;;;;;;;-3.44;66.95;96508.78;5052203;28;20037;-69
2022/12/20 04:33:56;;;;;;;11.57;6.28;;;;;;;-3.52;66.80;96513.88;5051692;28;20028;-69
2022/12/20 04:36:21;;;;;;;8.30;5.63;;;;;;;-3.68;67.83;96509.66;5018285;28;20029;-69
2022/12/20 04:38:46;;;;;;;9.65;6.07;;;;;;;-3.63;67.12;96518.13;5052211;28;20562;-69
2022/12/20 04:41:20;;;;;;;9.57;5.72;;;;;;;-3.78;67.87;96502.91;5052216;28;20036;-69
2022/12/20 04:43:51;;;;;;;12.13;5.80;;;;;;;-3.62;66.91;96518.13;5052138;28;20039;-69
2022/12/20 04:46:17;;;;;;;11.43;6.10;;;;;;;-3.75;66.97;96503.75;5052354;28;20025;-69
2022/12/20 04:48:42;;;;;;;9.00;4.93;;;;;;;-3.66;67.28;96511.34;5035668;28;20025;-69
2022/12/20 04:51:08;;;;;;;11.05;6.55;;;;;;;-3.62;66.89;96500.34;5053306;28;20056;-69
2022/12/20 04:53:48;;;;;;;11.50;6.03;;;;;;;-3.66;67.16;96506.25;5036823;28;20075;-69
2022/12/20 04:56:17;;;;;;;8.13;4.93;;;;;;;-3.72;66.92;96493.56;5034579;28;20052;-68
2022/12/20 04:58:43;;;;;;;9.05;5.28;;;;;;;-3.55;67.09;96507.97;5043246;28;20049;-69
2022/12/20 05:01:08;;;;;;;11.38;5.70;;;;;;;-3.56;66.52;96508.81;5025123;28;20033;-69
2022/12/20 05:03:34;;;;;;;9.57;5.13;;;;;;;-3.64;66.87;96489.34;5037420;28;20464;-69
2022/12/20 05:05:59;;;;;;;9.38;5.78;;;;;;;-3.57;67.38;96496.94;5039619;28;20029;-69
2022/12/20 05:08:25;;;;;;;11.50;5.85;;;;;;;-3.70;67.29;96484.25;5038926;28;20499;-69
2022/12/20 05:10:50;;;;;;;12.25;5.55;;;;;;;-3.60;67.24;96501.16;5040432;28;20391;-69
2022/12/20 05:13:16;;;;;;;11.45;6.35;;;;;;;-3.58;66.81;96508.81;5033337;28;20083;-69
2022/12/20 05:15:42;;;;;;;12.23;6.38;;;;;;;-3.62;67.21;96492.72;5008962;28;20041;-69
2022/12/20 05:18:07;;;;;;;9.25;5.28;;;;;;;-3.57;67.33;96504.56;5046934;28;20104;-70
2022/12/20 05:20:33;;;;;;;11.27;5.68;;;;;;;-3.62;67.40;96497.81;5044731;28;20036;-70
2022/12/20 05:28:28;;;;;;;11.00;6.20;;;;;;;-3.31;66.99;96497.78;5047195;28;20099;-70
2022/12/20 05:30:54;;;;;;;13.68;6.88;;;;;;;-3.32;66.72;96495.22;5044855;28;20048;-70
2022/12/20 05:33:19;;;;;;;9.00;5.65;;;;;;;-3.39;67.23;96495.22;5045520;28;20037;-70
2022/12/20 05:35:44;;;;;;;9.13;5.75;;;;;;;-3.28;66.25;96491.84;5027531;28;20526;-71
2022/12/20 05:38:10;;;;;;;9.70;5.78;;;;;;;-3.18;66.19;96493.47;5044482;28;20469;-70
2022/12/20 05:40:35;;;;;;;14.18;7.32;;;;;;;-3.13;65.79;96496.88;5044819;28;20036;-70
2022/12/20 05:43:01;;;;;;;18.38;8.05;;;;;;;-3.09;65.68;96488.41;5028175;28;20033;-70
2022/12/20 05:45:27;;;;;;;32.95;10.98;;;;;;;-2.91;65.72;96502.75;5030523;28;20124;-71
2022/12/20 05:47:52;;;;;;;21.73;10.02;;;;;;;-2.75;65.10;96503.53;5046826;28;20036;-71
2022/12/20 05:50:18;;;;;;;24.50;10.40;;;;;;;-2.79;65.28;96499.28;5037234;28;20056;-71
2022/12/20 05:52:43;;;;;;;22.50;9.80;;;;;;;-2.80;65.33;96498.47;5052235;28;20078;-71
2022/12/20 05:55:09;;;;;;;18.95;9.32;;;;;;;-2.84;65.38;96476.44;5011772;28;20049;-71
2022/12/20 05:57:34;;;;;;;19.63;9.85;;;;;;;-2.80;65.42;96503.53;5030938;28;20037;-70
2022/12/20 06:00:00;;;;;;;15.57;8.68;;;;;;;-2.77;65.69;96500.97;5015339;28;20029;-72
2022/12/20 06:02:26;;;;;;;15.75;8.55;;;;;;;-2.79;65.51;96505.22;5038568;28;20029;-71
2022/12/20 06:04:51;;;;;;;22.58;11.10;;;;;;;-3.07;65.75;96485.84;5038501;28;20033;-71
2022/12/20 06:07:18;;;;;;;17.63;9.52;;;;;;;-2.86;65.79;96511.19;5027751;28;20036;-71
2022/12/20 06:09:43;;;;;;;15.77;8.90;;;;;;;-2.77;65.60;96506.06;5038790;28;20025;-71
2022/12/20 06:12:09;;;;;;;14.40;8.75;;;;;;;-2.93;65.50;96501.88;5038873;28;20091;-71
2022/12/20 06:14:34;;;;;;;15.60;9.10;;;;;;;-3.00;66.16;96502.78;5039822;28;20045;-71
2022/12/20 06:17:00;;;;;;;14.05;8.77;;;;;;;-2.89;66.19;96516.31;5014400;28;20037;-71
2022/12/20 06:19:25;;;;;;;17.67;9.80;;;;;;;-2.81;65.76;96516.28;5039351;28;20036;-71
2022/12/20 06:21:51;;;;;;;16.73;9.82;;;;;;;-2.86;65.13;96498.50;5042134;28;20033;-72
2022/12/20 06:24:16;;;;;;;19.15;9.38;;;;;;;-2.89;65.36;96511.22;5036979;28;20017;-71
2022/12/20 06:26:42;;;;;;;16.90;9.05;;;;;;;-2.70;65.04;96522.19;5038885;28;20033;-71
2022/12/20 06:29:09;;;;;;;16.52;9.00;;;;;;;-2.89;64.87;96506.13;5030881;28;20037;-71
2022/12/20 06:31:35;;;;;;;15.65;8.88;;;;;;;-2.88;65.52;96512.91;5015721;28;20037;-71
2022/12/20 06:34:00;;;;;;;14.90;8.15;;;;;;;-2.73;65.37;96507.78;5036539;28;20086;-71
2022/12/20 06:36:26;;;;;;;16.85;9.98;;;;;;;-2.80;65.73;96517.97;5036773;28;20068;-71
2022/12/20 06:38:51;;;;;;;17.38;10.15;;;;;;;-2.81;65.54;96519.66;5040019;28;20036;-71
2022/12/20 06:41:17;;;;;;;12.43;8.10;;;;;;;-2.89;65.64;96513.75;5032167;28;20028;-71
2022/12/20 06:43:42;;;;;;;14.88;7.93;;;;;;;-2.94;65.65;96513.75;5041151;28;20029;-71
2022/12/20 06:46:08;;;;;;;15.68;8.48;;;;;;;-2.85;65.60;96510.34;5047938;28;20037;-72
2022/12/20 06:48:33;;;;;;;14.70;8.90;;;;;;;-2.89;66.20;96510.38;5047626;28;20025;-71
2022/12/20 06:50:59;;;;;;;15.13;9.57;;;;;;;-2.94;66.26;96510.38;5037516;28;20415;-70
2022/12/20 06:53:24;;;;;;;14.18;8.75;;;;;;;-3.00;66.03;96506.16;5037205;28;20029;-70
2022/12/20 06:55:50;;;;;;;17.25;9.68;;;;;;;-3.36;65.77;96504.56;5041234;28;20045;-70
2022/12/20 06:58:16;;;;;;;14.55;8.35;;;;;;;-3.17;65.97;96500.28;5027629;28;20127;-71
2022/12/20 07:00:42;;;;;;;15.00;8.88;;;;;;;-3.27;66.12;96494.34;5014982;28;20033;-72
2022/12/20 07:03:07;;;;;;;15.00;8.57;;;;;;;-3.23;65.86;96497.72;5037950;28;20087;-72
2022/12/20 07:05:33;;;;;;;17.00;10.57;;;;;;;-3.25;66.15;96495.22;5044355;28;20033;-71
2022/12/20 07:07:58;;;;;;;20.35;11.38;;;;;;;-3.35;66.72;96483.34;5027181;28;20503;-72
2022/12/20 07:10:23;;;;;;;24.27;12.63;;;;;;;-3.27;67.08;96485.88;5016705;28;20036;-72
2022/12/20 07:12:51;;;;;;;19.98;10.50;;;;;;;-3.36;66.31;96479.13;5034249;28;20287;-72
2022/12/20 07:15:17;;;;;;;22.85;11.38;;;;;;;-3.38;66.70;96480.81;5038108;28;20090;-72
2022/12/20 07:17:42;;;;;;;30.02;13.18;;;;;;;-3.31;66.41;96479.13;5039455;28;20033;-72
2022/12/20 07:20:08;;;;;;;14.85;8.70;;;;;;;-3.45;66.83;96485.09;5005228;28;20495;-72
2022/12/20 07:22:33;;;;;;;17.95;9.20;;;;;;;-3.34;66.92;96479.97;5033284;28;20491;-72
2022/12/20 07:24:59;;;;;;;22.02;11.15;;;;;;;-3.28;67.21;96484.22;5043450;28;20060;-72
2022/12/20 07:27:25;;;;;;;34.30;15.23;;;;;;;-3.15;67.32;96479.09;5044970;28;20035;-71
2022/12/20 07:29:50;;;;;;;29.48;14.88;;;;;;;-3.24;67.64;96476.56;5041716;28;20473;-72
2022/12/20 07:32:16;;;;;;;18.67;10.10;;;;;;;-3.25;68.07;96471.50;5044652;28;20111;-72
2022/12/20 07:34:41;;;;;;;17.30;10.55;;;;;;;-3.13;68.01;96471.44;5012259;28;20041;-72
2022/12/20 07:37:07;;;;;;;15.77;9.20;;;;;;;-3.06;67.84;96467.19;5028314;28;20505;-72
2022/12/20 07:39:33;;;;;;;15.02;8.50;;;;;;;-2.98;67.62;96465.44;5041040;28;20407;-72
2022/12/20 07:41:58;;;;;;;15.05;9.15;;;;;;;-3.04;67.75;96471.41;5039586;28;20116;-72
2022/12/20 07:44:24;;;;;;;12.82;8.10;;;;;;;-2.97;66.00;96467.16;5029671;28;20040;-72
2022/12/20 07:46:49;;;;;;;8.65;5.55;;;;;;;-3.10;63.92;96456.19;5040584;28;20048;-72
2022/12/20 07:49:15;;;;;;;10.32;5.65;;;;;;;-2.92;63.35;96466.28;5047306;28;20499;-72
2022/12/20 07:51:42;;;;;;;9.23;5.80;;;;;;;-2.71;62.45;96459.41;5048494;28;20032;-72
2022/12/20 07:54:15;;;;;;;9.40;5.43;;;;;;;-2.66;61.08;96467.03;5046670;28;20047;-72
2022/12/20 07:56:43;;;;;;;37.05;13.35;;;;;;;-2.58;60.69;96450.03;5046897;28;20041;-72
2022/12/20 07:59:09;;;;;;;11.98;5.43;;;;;;;-2.46;59.02;96457.56;5046835;28;20407;-73
2022/12/20 08:01:34;;;;;;;9.63;4.68;;;;;;;-2.16;58.70;96453.16;5044837;28;20032;-72
2022/12/20 08:04:06;;;;;;;8.93;5.10;;;;;;;-1.96;58.86;96451.28;5029297;28;20044;-72
2022/12/20 08:06:31;;;;;;;10.48;4.97;;;;;;;-1.84;57.28;96450.34;5048866;28;20115;-72
2022/12/20 08:08:58;;;;;;;12.95;5.75;;;;;;;-1.76;57.05;96437.53;5030039;28;20033;-72
2022/12/20 08:11:23;;;;;;;8.02;4.80;;;;;;;-1.72;56.00;96429.88;5032051;28;20041;-72
2022/12/20 08:13:49;;;;;;;10.02;5.32;;;;;;;-1.69;56.71;96408.63;5031486;28;20085;-72
2022/12/20 08:16:15;;;;;;;14.35;7.20;;;;;;;-1.25;57.98;96446.41;5029791;28;20021;-72
2022/12/20 08:18:40;;;;;;;10.07;5.40;;;;;;;-1.14;57.59;96433.53;5047523;28;20048;-72
2022/12/20 08:21:06;;;;;;;11.65;5.60;;;;;;;-1.02;56.81;96446.13;5047013;28;20095;-72
2022/12/20 08:23:31;;;;;;;9.18;5.88;;;;;;;-0.97;56.49;96449.47;5027125;28;20022;-72
2022/12/20 08:26:00;;;;;;;7.75;4.88;;;;;;;-0.95;55.74;96446.91;5046230;28;20033;-72
2022/12/20 08:28:25;;;;;;;9.18;5.40;;;;;;;-1.08;55.48;96447.94;5047557;28;20487;-72
2022/12/20 08:30:50;;;;;;;8.52;5.22;;;;;;;-0.96;55.46;96446.06;5029515;28;20037;-72
2022/12/20 08:33:16;;;;;;;8.30;5.20;;;;;;;-0.88;54.67;96450.25;5049133;28;20487;-73
2022/12/20 08:35:41;;;;;;;8.95;5.07;;;;;;;-0.95;53.49;96441.78;5048579;28;20056;-72
2022/12/20 08:38:07;;;;;;;8.98;5.30;;;;;;;-0.94;54.27;96434.13;5050257;28;20040;-73
2022/12/20 08:40:32;;;;;;;9.05;5.32;;;;;;;-0.83;54.78;96433.16;5045638;28;20487;-73
2022/12/20 08:42:58;;;;;;;8.45;4.60;;;;;;;-0.71;54.69;96438.09;5049186;28;20415;-73
2022/12/20 08:45:23;;;;;;;8.90;4.85;;;;;;;-0.63;53.44;96430.34;5046648;28;20040;-73
2022/12/20 08:47:48;;;;;;;9.80;5.53;;;;;;;-0.46;53.43;96428.41;5041632;28;20037;-72
2022/12/20 08:50:14;;;;;;;9.25;5.22;;;;;;;-0.37;52.95;96404.44;5043610;28;20040;-72
2022/12/20 08:52:40;;;;;;;9.10;5.18;;;;;;;-0.31;52.78;96425.63;5044164;28;20029;-73
2022/12/20 08:55:05;;;;;;;10.50;6.30;;;;;;;0.08;52.07;96425.88;5027541;28;20037;-72
2022/12/20 08:57:31;;;;;;;14.07;6.97;;;;;;;0.14;52.54;96415.59;5031303;28;20048;-73
2022/12/20 08:59:56;;;;;;;8.90;5.65;;;;;;;0.39;53.01;96428.78;5023458;28;20064;-73
2022/12/20 09:02:22;;;;;;;11.43;7.15;;;;;;;0.62;51.77;96417.31;5048511;28;20033;-73
2022/12/20 09:04:47;;;;;;;9.45;5.90;;;;;;;0.61;50.45;96418.16;5048840;28;20029;-72
2022/12/20 09:07:13;;;;;;;10.75;5.35;;;;;;;0.55;51.32;96416.56;5047913;28;20517;-73
2022/12/20 09:09:38;;;;;;;10.65;5.88;;;;;;;0.63;51.09;96416.44;5046652;28;20297;-72
2022/12/20 09:12:04;;;;;;;9.38;5.55;;;;;;;0.85;51.00;96404.91;5031115;28;20432;-73
2022/12/20 09:14:29;;;;;;;12.13;6.50;;;;;;;1.09;49.60;96395.06;5048149;28;20546;-73
2022/12/20 09:16:55;;;;;;;13.30;6.40;;;;;;;1.04;51.27;96395.16;5047819;28;20028;-73
2022/12/20 09:19:20;;;;;;;12.98;7.07;;;;;;;1.22;50.56;96382.84;5047062;28;20044;-73
2022/12/20 09:21:46;;;;;;;10.73;6.47;;;;;;;0.87;51.21;96377.59;5048077;28;20040;-73
2022/12/20 09:24:11;;;;;;;14.88;7.82;;;;;;;0.98;52.53;96379.94;5047630;28;20032;-73
2022/12/20 09:26:37;;;;;;;14.18;7.97;;;;;;;1.28;51.40;96385.28;5043525;28;20029;-72
2022/12/20 09:29:03;;;;;;;15.20;9.50;;;;;;;1.28;51.87;96387.81;5047075;28;20523;-73
2022/12/20 09:31:28;;;;;;;12.27;7.18;;;;;;;1.22;51.29;96354.69;5044311;28;20038;-72
2022/12/20 09:33:58;;;;;;;11.57;6.68;;;;;;;1.29;51.30;96349.41;5022416;28;20066;-72
2022/12/20 09:36:24;;;;;;;10.75;6.07;;;;;;;1.01;51.07;96373.91;5027547;28;20043;-72
2022/12/20 09:38:49;;;;;;;14.15;6.93;;;;;;;1.25;50.67;96360.56;5024465;28;20029;-72
2022/12/20 09:41:40;;;;;;;16.00;7.38;;;;;;;1.37;50.72;96356.09;5027044;28;20036;-72
2022/12/20 09:44:45;;;;;;;10.70;6.50;;;;;;;1.18;50.96;96363.31;5028490;28;20435;-72
2022/12/20 09:47:14;;;;;;;14.05;7.35;;;;;;;1.41;50.17;96345.72;5035865;28;20620;-73
2022/12/20 09:49:41;;;;;;;17.55;9.32;;;;;;;1.55;50.30;96348.81;5037126;28;20035;-72
2022/12/20 09:52:44;;;;;;;15.65;7.68;;;;;;;1.70;49.95;96347.63;5009070;28;20060;-71
2022/12/20 09:55:19;;;;;;;21.05;9.90;;;;;;;1.71;49.92;96321.13;5046647;28;20321;-73
2022/12/20 09:58:06;;;;;;;15.85;9.00;;;;;;;2.00;49.65;96335.75;5041482;28;20564;-73
2022/12/20 10:00:37;;;;;;;16.67;9.07;;;;;;;2.03;48.92;96321.19;5040989;28;20045;-73
2022/12/20 10:03:04;;;;;;;13.40;8.18;;;;;;;2.22;49.13;96328.38;5015002;28;20029;-72
2022/12/20 10:05:37;;;;;;;19.83;8.88;;;;;;;2.28;48.11;96311.16;5046319;28;20052;-72
2022/12/20 10:08:34;;;;;;;15.07;8.38;;;;;;;2.48;47.36;96324.28;5012246;28;20033;-72
2022/12/20 10:11:21;;;;;;;12.95;7.43;;;;;;;2.56;46.80;96318.94;5044334;28;20059;-71
2022/12/20 10:13:51;;;;;;;34.25;13.27;;;;;;;2.50;47.51;96311.41;5042625;28;20044;-72
2022/12/20 10:16:17;;;;;;;21.45;9.90;;;;;;;2.57;47.25;96303.50;5046455;28;20029;-72
2022/12/20 10:19:01;;;;;;;13.57;7.13;;;;;;;2.72;46.67;96298.84;5042592;28;20040;-72
2022/12/20 10:21:32;;;;;;;12.35;7.38;;;;;;;2.90;45.34;96296.59;5041868;28;20041;-73
2022/12/20 10:24:24;;;;;;;11.63;6.30;;;;;;;2.95;45.03;96282.75;5043387;28;20059;-73
2022/12/20 10:26:49;;;;;;;13.75;8.05;;;;;;;2.98;45.56;96272.38;5046820;28;20060;-72
2022/12/20 10:29:15;;;;;;;16.77;9.68;;;;;;;3.08;45.81;96268.66;5044943;28;20080;-72
2022/12/20 10:31:40;;;;;;;14.52;9.95;;;;;;;3.15;44.89;96249.63;5045362;28;20029;-73
2022/12/20 10:34:06;;;;;;;12.75;8.20;;;;;;;3.14;44.59;96246.19;5046827;28;20079;-73
2022/12/20 10:36:33;;;;;;;14.43;10.52;;;;;;;3.19;44.23;96246.06;5048507;28;20047;-73
2022/12/20 10:39:05;;;;;;;12.30;7.55;;;;;;;3.34;43.71;96229.31;5036631;28;20034;-73
2022/12/20 10:41:47;;;;;;;10.75;6.82;;;;;;;3.43;44.17;96234.19;5024053;28;20044;-73
2022/12/20 10:44:23;;;;;;;10.57;6.25;;;;;;;3.60;43.97;96225.94;5044528;28;20051;-73
2022/12/20 10:46:58;;;;;;;10.38;6.53;;;;;;;3.30;43.19;96212.34;5040800;28;20120;-73
2022/12/20 10:49:37;;;;;;;11.02;6.75;;;;;;;3.40;43.63;96216.31;5021474;28;20120;-73
2022/12/20 10:52:07;;;;;;;12.15;6.53;;;;;;;3.55;42.71;96207.25;5022091;28;20061;-73
2022/12/20 10:54:42;;;;;;;10.27;6.00;;;;;;;3.67;42.32;96200.84;5036161;28;20033;-72
2022/12/20 10:57:22;;;;;;;11.18;6.28;;;;;;;3.73;43.19;96201.50;5019797;28;20056;-72
2022/12/20 10:59:48;;;;;;;10.20;6.40;;;;;;;3.77;43.13;96190.22;5041243;28;20028;-72
2022/12/20 11:02:27;;;;;;;11.00;6.45;;;;;;;3.60;44.16;96164.25;5041371;28;20414;-73
2022/12/20 11:05:01;;;;;;;12.50;8.20;;;;;;;3.76;43.27;96191.13;5024293;28;20048;-72
2022/12/20 11:07:28;;;;;;;11.90;7.97;;;;;;;3.77;42.59;96186.81;5008967;28;20024;-72
2022/12/20 11:09:56;;;;;;;12.80;7.60;;;;;;;3.81;42.49;96185.81;5046679;28;20499;-72
2022/12/20 11:12:21;;;;;;;22.38;14.32;;;;;;;3.85;41.11;96183.97;5038565;28;20557;-72
2022/12/20 11:14:48;;;;;;;19.42;13.52;;;;;;;3.78;42.13;96170.47;5013474;28;20087;-72
2022/12/20 11:17:13;;;;;;;23.67;15.02;;;;;;;3.93;41.81;96182.81;5029726;28;20022;-72
2022/12/20 11:20:16;;;;;;;7.13;4.63;;;;;;;3.46;40.05;96181.88;5028872;28;20084;-72
2022/12/20 11:22:55;;;;;;;7.20;4.68;;;;;;;3.20;41.83;96173.25;5030892;28;20037;-72
2022/12/20 11:25:32;;;;;;;8.30;4.57;;;;;;;3.36;40.25;96160.75;5030590;28;20057;-71
2022/12/20 11:28:20;;;;;;;7.70;4.60;;;;;;;3.19;41.50;96163.06;5029693;28;20032;-71
2022/12/20 11:30:51;;;;;;;7.32;4.40;;;;;;;3.27;40.24;96166.22;5032448;28;20049;-72
2022/12/20 11:34:02;;;;;;;7.38;4.18;;;;;;;3.11;40.89;96153.84;5049386;28;20017;-72
2022/12/20 11:36:57;;;;;;;6.93;3.88;;;;;;;3.01;40.26;96165.31;5028769;28;20561;-72
2022/12/20 11:39:31;;;;;;;6.70;4.00;;;;;;;3.24;41.10;96159.44;5035025;28;20107;-72
2022/12/20 11:42:01;;;;;;;6.30;3.63;;;;;;;3.26;41.29;96138.84;5010437;28;20044;-72